createdAt,value
2018-07-12T00:02:05.608Z,8.53
2018-07-12T00:04:46.226Z,9.30
2018-07-12T00:07:27.061Z,9.63
2018-07-12T00:10:07.748Z,8.20
2018-07-12T00:12:48.370Z,8.78
2018-07-12T00:15:28.920Z,9.73
2018-07-12T00:18:09.637Z,9.50
2018-07-12T00:20:50.242Z,10.10
2018-07-12T00:23:17.589Z,9.35
2018-07-12T00:25:58.295Z,9.25
2018-07-12T00:28:28.985Z,9.40
2018-07-12T00:31:09.474Z,9.25
2018-07-12T00:33:50.237Z,9.00
2018-07-12T00:36:30.901Z,8.95
2018-07-12T00:39:11.599Z,8.68
2018-07-12T00:41:38.863Z,9.78
2018-07-12T00:44:19.816Z,8.95
2018-07-12T00:47:00.552Z,9.00
2018-07-12T00:49:41.179Z,8.83
2018-07-12T00:52:21.795Z,9.75
2018-07-12T00:54:49.060Z,8.23
2018-07-12T00:57:16.321Z,8.60
2018-07-12T00:59:49.985Z,8.98
2018-07-12T01:02:30.555Z,9.50
2018-07-12T01:04:59.317Z,9.60
2018-07-12T01:07:30.050Z,10.20
2018-07-12T01:09:57.274Z,11.48
2018-07-12T01:12:27.088Z,11.15
2018-07-12T01:15:07.667Z,11.95
2018-07-12T01:17:36.303Z,11.63
2018-07-12T01:20:16.902Z,11.65
2018-07-12T01:22:57.533Z,12.37
2018-07-12T01:25:38.128Z,11.88
2018-07-12T01:28:18.765Z,13.90
2018-07-12T01:30:46.018Z,12.60
2018-07-12T01:33:27.177Z,13.40
2018-07-12T01:35:54.443Z,13.60
2018-07-12T01:38:35.152Z,14.10
2018-07-12T01:41:08.871Z,13.62
2018-07-12T01:43:36.130Z,15.68
2018-07-12T01:46:03.379Z,15.60
2018-07-12T01:48:30.628Z,14.90
2018-07-12T01:51:12.098Z,15.77
2018-07-12T01:53:53.143Z,16.27
2018-07-12T01:56:26.932Z,15.20
2018-07-12T01:59:07.550Z,18.23
2018-07-12T02:01:34.829Z,18.45
2018-07-12T02:04:15.363Z,18.42
2018-07-12T02:06:55.829Z,17.75
2018-07-12T02:09:23.106Z,15.45
2018-07-12T02:11:50.354Z,15.90
2018-07-12T02:14:30.664Z,16.62
2018-07-12T02:17:11.314Z,14.68
2018-07-12T02:19:38.549Z,14.70
2018-07-12T02:22:19.454Z,14.60
2018-07-12T02:25:00.089Z,14.60
2018-07-12T02:27:27.564Z,15.30
2018-07-12T02:30:03.209Z,15.60
2018-07-12T02:32:43.836Z,16.30
2018-07-12T02:35:24.520Z,13.95
2018-07-12T02:37:51.773Z,14.58
2018-07-12T02:40:32.002Z,13.10
2018-07-12T02:43:12.691Z,14.87
2018-07-12T02:45:39.973Z,13.60
2018-07-12T02:48:20.888Z,15.60
2018-07-12T02:50:52.704Z,11.73
2018-07-12T02:53:33.514Z,12.10
2018-07-12T02:56:00.774Z,12.23
2018-07-12T02:58:41.075Z,10.00
2018-07-12T03:01:21.769Z,10.95
2018-07-12T03:03:49.072Z,11.22
2018-07-12T03:06:29.308Z,12.18
2018-07-12T03:09:10.047Z,12.65
2018-07-12T03:11:50.773Z,13.05
2018-07-12T03:14:17.991Z,12.90
2018-07-12T03:16:58.309Z,13.18
2018-07-12T03:19:38.930Z,12.70
2018-07-12T03:22:19.524Z,12.63
2018-07-12T03:24:46.771Z,12.05
2018-07-12T03:27:27.659Z,11.90
2018-07-12T03:30:08.353Z,12.53
2018-07-12T03:32:49.201Z,11.25
2018-07-12T03:35:29.821Z,10.48
2018-07-12T03:37:57.188Z,11.28
2018-07-12T03:40:38.238Z,11.85
2018-07-12T03:43:18.823Z,10.63
2018-07-12T03:45:59.565Z,10.00
2018-07-12T03:48:40.066Z,11.15
2018-07-12T03:51:07.318Z,11.35
2018-07-12T03:53:34.567Z,10.80
2018-07-12T03:56:01.815Z,12.25
2018-07-12T03:58:42.768Z,11.22
2018-07-12T04:01:24.041Z,10.20
2018-07-12T04:03:51.295Z,10.90
2018-07-12T04:06:22.952Z,8.93
2018-07-12T04:08:50.577Z,9.95
2018-07-12T04:11:17.828Z,9.70
2018-07-12T04:13:45.063Z,9.70
2018-07-12T04:16:12.321Z,9.03
2018-07-12T04:18:39.549Z,8.80
2018-07-12T04:21:06.841Z,8.10
2018-07-12T04:23:47.725Z,8.90
2018-07-12T04:26:28.307Z,8.70
2018-07-12T04:28:55.570Z,8.33
2018-07-12T04:31:35.693Z,8.45
2018-07-12T04:34:16.289Z,8.73
2018-07-12T04:36:43.550Z,8.50
2018-07-12T04:39:24.555Z,8.60
2018-07-12T04:41:51.818Z,9.10
2018-07-12T04:44:19.712Z,8.48
2018-07-12T04:47:00.657Z,5.03
2018-07-12T04:49:41.153Z,6.37
2018-07-12T04:52:08.442Z,6.33
2018-07-12T04:54:49.462Z,7.78
2018-07-12T04:57:16.710Z,7.50
2018-07-12T04:59:44.776Z,7.35
2018-07-12T05:02:25.497Z,7.00
2018-07-12T05:05:02.296Z,7.60
2018-07-12T05:07:37.853Z,8.58
2018-07-12T05:10:18.413Z,9.75
2018-07-12T05:12:59.297Z,10.15
2018-07-12T05:15:41.102Z,11.83
2018-07-12T05:18:21.481Z,11.10
2018-07-12T05:20:48.737Z,11.20
2018-07-12T05:23:29.215Z,11.97
2018-07-12T05:25:56.458Z,9.80
2018-07-12T05:28:36.609Z,11.33
2018-07-12T05:31:17.400Z,12.63
2018-07-12T05:33:58.011Z,11.95
2018-07-12T05:37:03.600Z,13.03
2018-07-12T05:39:44.607Z,11.47
2018-07-12T05:42:12.808Z,8.85
2018-07-12T05:44:40.992Z,8.25
2018-07-12T05:47:21.241Z,8.45
2018-07-12T05:50:01.965Z,7.80
2018-07-12T05:52:42.739Z,7.90
2018-07-12T05:55:23.454Z,7.40
2018-07-12T05:57:51.741Z,7.42
2018-07-12T06:00:19.966Z,6.87
2018-07-12T06:03:00.811Z,9.65
2018-07-12T06:05:41.329Z,7.50
2018-07-12T06:08:21.925Z,7.90
2018-07-12T06:11:03.137Z,7.30
2018-07-12T06:13:44.085Z,7.80
2018-07-12T06:16:12.470Z,7.12
2018-07-12T06:18:53.524Z,7.12
2018-07-12T06:21:21.902Z,7.80
2018-07-12T06:24:02.770Z,7.50
2018-07-12T06:26:30.956Z,7.05
2018-07-12T06:29:11.068Z,5.90
2018-07-12T06:31:51.690Z,5.10
2018-07-12T06:34:19.963Z,4.50
2018-07-12T06:37:00.349Z,4.28
2018-07-12T06:39:40.942Z,3.83
2018-07-12T06:42:09.164Z,3.12
2018-07-12T06:44:49.398Z,5.10
2018-07-12T06:47:19.323Z,3.67
2018-07-12T06:49:59.837Z,3.75
2018-07-12T06:52:40.533Z,3.27
2018-07-12T06:55:21.170Z,3.50
2018-07-12T06:58:02.047Z,3.62
2018-07-12T07:00:42.608Z,3.42
2018-07-12T07:03:11.062Z,3.70
2018-07-12T07:05:51.921Z,3.85
2018-07-12T07:08:27.395Z,4.42
2018-07-12T07:10:55.675Z,4.10
2018-07-12T07:13:23.880Z,5.40
2018-07-12T07:15:52.107Z,5.50
2018-07-12T07:18:20.349Z,5.60
2018-07-12T07:20:48.566Z,5.83
2018-07-12T07:23:17.104Z,6.10
2018-07-12T07:25:46.142Z,6.10
2018-07-12T07:28:18.097Z,5.20
2018-07-12T07:30:58.440Z,5.83
2018-07-12T07:33:39.023Z,6.35
2018-07-12T07:36:19.848Z,5.10
2018-07-12T07:38:50.117Z,8.78
2018-07-12T07:41:18.366Z,7.67
2018-07-12T07:43:58.961Z,7.00
2018-07-12T07:46:27.352Z,6.10
2018-07-12T07:48:55.533Z,7.70
2018-07-12T07:51:24.485Z,8.30
2018-07-12T07:54:04.881Z,10.18
2018-07-12T07:56:45.505Z,11.78
2018-07-12T07:59:16.990Z,13.35
2018-07-12T08:01:57.257Z,11.40
2018-07-12T08:04:25.578Z,12.13
2018-07-12T08:06:54.401Z,12.15
2018-07-12T08:09:22.675Z,11.50
2018-07-12T08:12:03.068Z,13.35
2018-07-12T08:14:31.298Z,13.40
2018-07-12T08:17:11.432Z,11.50
2018-07-12T08:19:52.892Z,12.45
2018-07-12T08:22:27.539Z,13.30
2018-07-12T08:25:08.275Z,14.50
2018-07-12T08:27:36.959Z,14.18
2018-07-12T08:30:05.323Z,10.58
2018-07-12T08:32:33.536Z,10.30
2018-07-12T08:35:05.530Z,11.70
2018-07-12T08:37:33.737Z,13.80
2018-07-12T08:40:06.659Z,13.28
2018-07-12T08:42:36.488Z,12.40
2018-07-12T08:45:04.805Z,12.95
2018-07-12T08:47:34.822Z,12.35
2018-07-12T08:50:04.753Z,12.23
2018-07-12T08:52:44.967Z,12.60
2018-07-12T08:55:13.340Z,14.10
2018-07-12T08:57:53.533Z,12.53
2018-07-12T09:00:34.182Z,11.10
2018-07-12T09:03:15.290Z,11.55
2018-07-12T09:05:55.469Z,9.90
2018-07-12T09:08:23.774Z,11.75
2018-07-12T09:11:04.762Z,12.05
2018-07-12T09:13:45.422Z,11.53
2018-07-12T09:16:13.654Z,11.33
2018-07-12T09:18:43.798Z,10.15
2018-07-12T09:21:24.721Z,10.30
2018-07-12T09:23:52.970Z,9.18
2018-07-12T09:26:33.179Z,9.00
2018-07-12T09:29:07.054Z,10.20
2018-07-12T09:31:35.302Z,9.88
2018-07-12T09:34:03.554Z,8.30
2018-07-12T09:36:31.809Z,9.13
2018-07-12T09:39:00.037Z,6.90
2018-07-12T09:41:40.460Z,6.70
2018-07-12T09:44:21.221Z,6.50
2018-07-12T09:46:49.474Z,6.90
2018-07-12T09:49:19.365Z,6.75
2018-07-12T09:51:52.594Z,7.80
2018-07-12T09:54:33.416Z,7.55
2018-07-12T09:57:12.950Z,7.20
2018-07-12T09:59:53.656Z,6.80
2018-07-12T10:02:35.142Z,6.78
2018-07-12T10:05:21.176Z,6.60
2018-07-12T10:07:55.555Z,7.70
2018-07-12T10:10:30.356Z,6.55
2018-07-12T10:13:15.989Z,6.65
2018-07-12T10:16:01.561Z,6.90
2018-07-12T10:18:41.833Z,7.40
2018-07-12T10:21:11.169Z,6.78
2018-07-12T10:23:44.027Z,6.75
2018-07-12T10:26:12.926Z,7.45
2018-07-12T10:28:41.242Z,7.05
2018-07-12T10:31:09.503Z,6.30
2018-07-12T10:33:37.952Z,6.35
2018-07-12T10:36:18.882Z,6.25
2018-07-12T10:38:47.191Z,6.53
2018-07-12T10:41:27.532Z,6.50
2018-07-12T10:44:08.050Z,6.67
2018-07-12T10:46:48.800Z,6.12
2018-07-12T10:49:29.434Z,6.22
2018-07-12T10:51:57.881Z,6.30
2018-07-12T10:54:26.655Z,6.10
2018-07-12T10:57:06.814Z,5.53
2018-07-12T10:59:35.277Z,6.10
2018-07-12T11:02:03.506Z,5.78
2018-07-12T11:04:33.326Z,6.30
2018-07-12T11:07:01.520Z,5.65
2018-07-12T11:09:30.419Z,5.35
2018-07-12T11:12:04.519Z,5.70
2018-07-12T11:14:45.399Z,5.40
2018-07-12T11:17:25.976Z,5.00
2018-07-12T11:19:54.728Z,5.08
2018-07-12T11:22:23.029Z,4.78
2018-07-12T11:25:03.221Z,4.55
2018-07-12T11:27:43.859Z,4.90
2018-07-12T11:30:24.692Z,5.47
2018-07-12T11:33:05.296Z,4.67
2018-07-12T11:35:45.508Z,4.92
2018-07-12T11:38:26.196Z,4.65
2018-07-12T11:41:06.907Z,4.70
2018-07-12T11:43:35.279Z,4.65
2018-07-12T11:46:13.205Z,4.60
2018-07-12T11:48:54.130Z,5.12
2018-07-12T11:51:25.629Z,5.20
2018-07-12T11:54:05.725Z,5.10
2018-07-12T11:56:46.497Z,4.58
2018-07-12T11:59:14.751Z,5.30
2018-07-12T12:01:55.814Z,5.00
2018-07-12T12:04:36.309Z,5.37
2018-07-12T12:07:17.123Z,5.27
2018-07-12T12:09:57.601Z,5.40
2018-07-12T12:12:25.922Z,5.62
2018-07-12T12:15:06.863Z,5.10
2018-07-12T12:17:35.086Z,5.90
2018-07-12T12:20:03.448Z,5.80
2018-07-12T12:22:31.610Z,6.08
2018-07-12T12:25:11.844Z,5.62
2018-07-12T12:27:40.058Z,5.90
2018-07-12T12:30:20.568Z,5.78
2018-07-12T12:33:01.458Z,5.60
2018-07-12T12:35:29.684Z,5.28
2018-07-12T12:38:10.677Z,5.60
2018-07-12T12:40:51.325Z,5.80
2018-07-12T12:43:19.584Z,5.70
2018-07-12T12:45:47.886Z,5.50
2018-07-12T12:48:28.820Z,5.97
2018-07-12T12:50:57.134Z,6.10
2018-07-12T12:53:38.110Z,5.10
2018-07-12T12:56:06.372Z,4.42
2018-07-12T12:58:34.610Z,4.58
2018-07-12T13:01:02.829Z,4.33
2018-07-12T13:03:31.092Z,4.53
2018-07-12T13:06:11.261Z,4.70
2018-07-12T13:08:39.506Z,4.30
2018-07-12T13:11:19.757Z,4.80
2018-07-12T13:14:00.429Z,4.17
2018-07-12T13:16:41.198Z,5.10
2018-07-12T13:19:21.889Z,4.47
2018-07-12T13:21:50.206Z,4.78
2018-07-12T13:24:18.406Z,4.42
2018-07-12T13:26:59.215Z,3.90
2018-07-12T13:29:40.013Z,4.17
2018-07-12T13:32:20.524Z,4.35
2018-07-12T13:35:01.184Z,3.80
2018-07-12T13:37:41.842Z,4.25
2018-07-12T13:40:22.554Z,4.30
2018-07-12T13:43:03.255Z,4.30
2018-07-12T13:45:43.903Z,4.50
2018-07-12T13:48:12.081Z,4.90
2018-07-12T13:50:52.433Z,4.37
2018-07-12T13:53:33.028Z,4.85
2018-07-12T13:56:13.738Z,4.80
2018-07-12T13:58:54.587Z,4.73
2018-07-12T14:01:35.257Z,4.58
2018-07-12T14:04:16.066Z,4.60
2018-07-12T14:06:56.677Z,5.40
2018-07-12T14:09:25.045Z,5.05
2018-07-12T14:11:59.010Z,5.00
2018-07-12T14:14:27.296Z,5.25
2018-07-12T14:16:55.496Z,5.30
2018-07-12T14:19:24.023Z,4.90
2018-07-12T14:22:05.181Z,5.70
2018-07-12T14:24:36.419Z,5.80
2018-07-12T14:27:07.696Z,5.00
2018-07-12T14:29:48.284Z,4.60
2018-07-12T14:32:16.758Z,4.30
2018-07-12T14:34:45.000Z,5.22
2018-07-12T14:37:13.330Z,5.00
2018-07-12T14:39:41.591Z,4.87
2018-07-12T14:42:22.136Z,4.85
2018-07-12T14:44:50.397Z,4.25
2018-07-12T14:47:31.277Z,4.30
2018-07-12T14:50:11.853Z,4.05
2018-07-12T14:52:42.228Z,5.00
2018-07-12T14:55:22.329Z,4.77
2018-07-12T14:57:50.585Z,4.40
2018-07-12T15:00:23.665Z,4.70
2018-07-12T15:03:04.622Z,3.85
2018-07-12T15:05:45.262Z,4.60
2018-07-12T15:08:26.196Z,4.62
2018-07-12T15:10:55.248Z,4.90
2018-07-12T15:13:35.642Z,4.35
2018-07-12T15:16:17.549Z,4.28
2018-07-12T15:18:58.208Z,4.95
2018-07-12T15:21:26.922Z,5.00
2018-07-12T15:24:01.365Z,4.10
2018-07-12T15:26:29.909Z,4.65
2018-07-12T15:28:58.776Z,5.00
2018-07-12T15:31:38.989Z,4.10
2018-07-12T15:34:19.664Z,4.20
2018-07-12T15:36:48.014Z,4.30
2018-07-12T15:39:30.325Z,5.60
2018-07-12T15:42:11.645Z,4.35
2018-07-12T15:44:39.901Z,4.12
2018-07-12T15:47:21.710Z,4.85
2018-07-12T15:49:49.905Z,4.37
2018-07-12T15:52:30.657Z,4.70
2018-07-12T15:55:11.073Z,4.95
2018-07-12T15:57:39.358Z,4.60
2018-07-12T16:00:07.702Z,5.00
2018-07-12T16:02:48.377Z,5.35
2018-07-12T16:05:29.007Z,5.70
2018-07-12T16:07:59.099Z,5.10
2018-07-12T16:10:27.408Z,5.80
2018-07-12T16:12:55.618Z,4.95
2018-07-12T16:15:36.078Z,6.37
2018-07-12T16:18:04.344Z,5.47
2018-07-12T16:20:44.446Z,6.05
2018-07-12T16:23:12.755Z,6.10
2018-07-12T16:25:53.787Z,6.40
2018-07-12T16:28:35.183Z,4.95
2018-07-12T16:31:03.550Z,5.70
2018-07-12T16:33:32.736Z,6.40
2018-07-12T16:36:04.429Z,5.20
2018-07-12T16:38:32.789Z,5.45
2018-07-12T16:41:13.422Z,6.90
2018-07-12T16:43:54.218Z,5.35
2018-07-12T16:46:22.685Z,5.15
2018-07-12T16:49:02.796Z,5.40
2018-07-12T16:51:43.561Z,5.78
2018-07-12T16:54:14.689Z,6.00
2018-07-12T16:56:55.015Z,5.45
2018-07-12T16:59:30.290Z,4.90
2018-07-12T17:01:58.818Z,5.30
2018-07-12T17:04:27.280Z,5.50
2018-07-12T17:07:08.099Z,6.00
2018-07-12T17:09:49.012Z,6.62
2018-07-12T17:12:30.871Z,6.10
2018-07-12T17:15:11.241Z,5.70
2018-07-12T17:17:39.908Z,5.80
2018-07-12T17:20:21.373Z,6.05
2018-07-12T17:23:02.364Z,6.75
2018-07-12T17:25:30.938Z,6.75
2018-07-12T17:27:59.834Z,7.40
2018-07-12T17:30:28.175Z,7.50
2018-07-12T17:33:02.909Z,7.10
2018-07-12T17:35:34.834Z,8.50
2018-07-12T17:38:04.328Z,8.30
2018-07-12T17:40:34.268Z,7.67
2018-07-12T17:43:03.746Z,7.87
2018-07-12T17:45:32.085Z,8.38
2018-07-12T17:48:01.705Z,8.10
2018-07-12T17:50:31.448Z,7.90
2018-07-12T17:52:59.946Z,8.83
2018-07-12T17:55:34.563Z,8.55
2018-07-12T17:58:09.725Z,9.30
2018-07-12T18:00:38.988Z,8.77
2018-07-12T18:03:07.432Z,9.63
2018-07-12T18:05:35.873Z,9.30
2018-07-12T18:08:04.315Z,9.20
2018-07-12T18:10:33.428Z,9.00
2018-07-12T18:13:01.708Z,10.28
2018-07-12T18:15:30.126Z,8.88
2018-07-12T18:18:03.902Z,8.43
2018-07-12T18:20:46.361Z,8.83
2018-07-12T18:23:16.665Z,7.65
2018-07-12T18:25:56.974Z,8.33
2018-07-12T18:28:25.230Z,8.50
2018-07-12T18:31:05.422Z,8.40
2018-07-12T18:33:33.687Z,8.15
2018-07-12T18:36:02.046Z,9.03
2018-07-12T18:38:42.890Z,9.58
2018-07-12T18:41:11.449Z,8.90
2018-07-12T18:43:43.763Z,8.88
2018-07-12T18:46:12.029Z,8.93
2018-07-12T18:48:40.257Z,9.83
2018-07-12T18:51:20.888Z,8.75
2018-07-12T18:53:55.595Z,8.23
2018-07-12T18:56:29.301Z,8.53
2018-07-12T18:59:09.934Z,8.85
2018-07-12T19:01:50.511Z,9.30
2018-07-12T19:04:31.005Z,9.18
2018-07-12T19:07:11.668Z,8.90
2018-07-12T19:09:39.908Z,8.40
2018-07-12T19:12:20.949Z,8.40
2018-07-12T19:14:49.730Z,8.63
2018-07-12T19:17:30.311Z,9.08
2018-07-12T19:20:10.833Z,8.58
2018-07-12T19:22:44.250Z,8.15
2018-07-12T19:25:24.367Z,8.13
2018-07-12T19:28:04.964Z,9.10
2018-07-12T19:30:33.184Z,9.95
2018-07-12T19:33:13.586Z,9.75
2018-07-12T19:35:54.304Z,9.10
2018-07-12T19:38:22.538Z,9.38
2018-07-12T19:41:02.972Z,10.10
2018-07-12T19:43:43.492Z,8.55
2018-07-12T19:46:24.211Z,9.85
2018-07-12T19:48:53.003Z,8.80
2018-07-12T19:51:22.003Z,8.73
2018-07-12T19:54:02.840Z,9.55
2018-07-12T19:56:43.368Z,10.40
2018-07-12T19:59:24.013Z,8.40
2018-07-12T20:01:52.484Z,8.85
2018-07-12T20:04:21.654Z,10.20
2018-07-12T20:06:49.906Z,57.80
2018-07-12T20:09:30.858Z,39.67
2018-07-12T20:11:59.126Z,10.72
2018-07-12T20:14:39.324Z,10.10
2018-07-12T20:17:07.944Z,10.05
2018-07-12T20:19:48.639Z,10.50
2018-07-12T20:22:17.219Z,10.10
2018-07-12T20:24:58.209Z,11.83
2018-07-12T20:27:38.744Z,12.80
2018-07-12T20:30:19.444Z,12.50
2018-07-12T20:32:47.878Z,11.10
2018-07-12T20:35:28.726Z,12.60
2018-07-12T20:37:57.960Z,11.63
2018-07-12T20:40:38.141Z,12.50
2018-07-12T20:43:09.898Z,12.10
2018-07-12T20:45:50.787Z,11.28
2018-07-12T20:48:19.187Z,11.75
2018-07-12T20:51:01.053Z,11.97
2018-07-12T20:53:41.933Z,11.55
2018-07-12T20:56:22.685Z,10.88
2018-07-12T20:59:03.411Z,11.15
2018-07-12T21:01:44.101Z,11.53
2018-07-12T21:04:24.549Z,11.12
2018-07-12T21:07:05.247Z,10.85
2018-07-12T21:09:45.983Z,13.03
2018-07-12T21:12:26.753Z,11.28
2018-07-12T21:15:07.337Z,11.15
2018-07-12T21:17:47.931Z,11.10
2018-07-12T21:20:28.622Z,10.95
2018-07-12T21:22:57.103Z,10.38
2018-07-12T21:25:25.441Z,10.60
2018-07-12T21:28:05.792Z,11.38
2018-07-12T21:30:46.518Z,11.00
2018-07-12T21:33:27.200Z,10.50
2018-07-12T21:36:07.765Z,12.20
2018-07-12T21:38:36.042Z,11.48
2018-07-12T21:41:17.118Z,10.85
2018-07-12T21:43:58.006Z,10.63
2018-07-12T21:46:38.672Z,10.90
2018-07-12T21:49:19.055Z,11.40
2018-07-12T21:51:59.912Z,11.33
2018-07-12T21:54:40.681Z,10.08
2018-07-12T21:57:09.255Z,10.78
2018-07-12T21:59:37.727Z,12.50
2018-07-12T22:02:05.960Z,11.30
2018-07-12T22:04:34.228Z,11.63
2018-07-12T22:07:14.764Z,10.30
2018-07-12T22:09:55.328Z,10.23
2018-07-12T22:12:36.054Z,11.68
2018-07-12T22:15:16.838Z,9.95
2018-07-12T22:17:57.989Z,11.55
2018-07-12T22:20:38.451Z,10.53
2018-07-12T22:23:19.213Z,10.53
2018-07-12T22:26:00.029Z,10.28
2018-07-12T22:28:28.383Z,11.60
2018-07-12T22:30:57.472Z,10.80
2018-07-12T22:33:38.463Z,10.85
2018-07-12T22:36:06.860Z,9.93
2018-07-12T22:38:41.640Z,10.75
2018-07-12T22:41:09.964Z,9.60
2018-07-12T22:43:50.798Z,9.28
2018-07-12T22:46:19.036Z,10.70
2018-07-12T22:48:47.344Z,9.43
2018-07-12T22:51:21.992Z,11.43
2018-07-12T22:53:50.708Z,11.43
2018-07-12T22:56:18.982Z,11.40
2018-07-12T22:58:59.188Z,9.55
2018-07-12T23:01:28.892Z,10.65
2018-07-12T23:03:57.232Z,9.93
2018-07-12T23:06:25.665Z,10.40
2018-07-12T23:08:53.929Z,9.63
2018-07-12T23:11:22.222Z,9.80
2018-07-12T23:13:50.469Z,9.48
2018-07-12T23:16:19.203Z,9.75
2018-07-12T23:18:47.504Z,10.23
2018-07-12T23:21:15.802Z,9.95
2018-07-12T23:23:56.576Z,10.38
2018-07-12T23:26:24.853Z,9.78
2018-07-12T23:29:05.130Z,10.70
2018-07-12T23:31:45.954Z,9.45
2018-07-12T23:34:26.709Z,9.45
2018-07-12T23:37:07.291Z,9.20
2018-07-12T23:39:35.584Z,9.68
2018-07-12T23:42:15.817Z,9.10
2018-07-12T23:44:44.104Z,9.30
2018-07-12T23:47:25.162Z,8.75
2018-07-12T23:49:53.483Z,9.08
2018-07-12T23:52:21.817Z,9.40
2018-07-12T23:55:02.281Z,9.60
2018-07-12T23:57:30.506Z,9.20
